Time;durP1;ratioP1;P1;durP2;ratioP2;P2;SDS_P1;SDS_P2;PMS_P1;PMS_P2;Temp;Humidity;BMP_temperature;BMP_pressure;BME280_temperature;BME280_humidity;BME280_pressure;Samples;Min_cycle;Max_cycle;Signal;HPM_P1;HPM_P2
2024/03/04 00:02:02;;;;;;;3.80;3.00;;;21.10;55.30;;;;;;5056367;28;20209;-71
2024/03/04 00:04:27;;;;;;;13.10;3.90;;;21.10;55.30;;;;;;5055999;28;20187;-71
2024/03/04 00:06:53;;;;;;;3.37;3.07;;;21.10;55.30;;;;;;5056026;28;20409;-70
2024/03/04 00:09:19;;;;;;;3.30;3.00;;;21.10;55.30;;;;;;5055736;28;20615;-70
2024/03/04 00:11:45;;;;;;;3.60;2.80;;;21.10;55.30;;;;;;5055927;28;20225;-71
2024/03/04 00:14:10;;;;;;;4.47;3.30;;;21.10;55.30;;;;;;5056447;28;20430;-71
2024/03/04 00:16:36;;;;;;;3.80;3.40;;;21.00;55.30;;;;;;5055576;28;20715;-71
2024/03/04 00:19:03;;;;;;;3.73;3.43;;;21.10;55.30;;;;;;5055881;28;20437;-70
2024/03/04 00:21:29;;;;;;;3.40;2.87;;;21.10;55.30;;;;;;5056954;28;20457;-69
2024/03/04 00:23:55;;;;;;;3.70;2.90;;;21.00;55.30;;;;;;5055639;28;20425;-70
2024/03/04 00:26:21;;;;;;;4.90;3.50;;;21.00;55.30;;;;;;5055496;28;20410;-70
2024/03/04 00:28:47;;;;;;;3.53;2.70;;;21.00;55.20;;;;;;5055894;28;20186;-71
2024/03/04 00:31:12;;;;;;;3.00;2.73;;;21.00;55.20;;;;;;5054814;28;20178;-71
2024/03/04 00:33:38;;;;;;;4.07;3.50;;;21.00;55.20;;;;;;5055654;28;20203;-70
2024/03/04 00:36:08;;;;;;;4.00;3.00;;;21.00;55.30;;;;;;5055800;28;20179;-71
2024/03/04 00:38:33;;;;;;;3.30;2.97;;;21.00;55.30;;;;;;5055742;28;20412;-71
2024/03/04 00:40:59;;;;;;;3.30;3.00;;;21.00;55.30;;;;;;5055630;28;20449;-70
2024/03/04 00:43:24;;;;;;;3.20;2.83;;;21.00;55.30;;;;;;5055131;28;20269;-71
2024/03/04 00:45:50;;;;;;;3.53;2.60;;;21.00;55.30;;;;;;5055592;28;20197;-69
2024/03/04 00:48:15;;;;;;;3.50;2.93;;;21.00;55.30;;;;;;5055976;28;20661;-70
2024/03/04 00:50:41;;;;;;;3.23;2.93;;;21.00;55.30;;;;;;5055611;28;20175;-70
2024/03/04 00:53:07;;;;;;;3.10;2.80;;;21.00;55.30;;;;;;5055405;28;20186;-70
2024/03/04 00:55:33;;;;;;;3.40;3.10;;;21.00;55.30;;;;;;5055478;28;20163;-70
2024/03/04 00:57:58;;;;;;;2.70;2.47;;;21.00;55.30;;;;;;5055030;28;20413;-70
2024/03/04 01:00:24;;;;;;;3.50;3.00;;;21.00;55.30;;;;;;5054751;28;20197;-72
2024/03/04 01:02:53;;;;;;;3.90;3.20;;;21.00;55.30;;;;;;5054640;28;20187;-70
2024/03/04 01:05:18;;;;;;;3.37;3.07;;;21.00;55.30;;;;;;5054183;28;20171;-72
2024/03/04 01:07:44;;;;;;;3.33;2.53;;;21.00;55.30;;;;;;5055567;28;20410;-70
2024/03/04 01:10:10;;;;;;;3.60;3.00;;;21.00;55.30;;;;;;5054380;28;20175;-71
2024/03/04 01:12:35;;;;;;;3.80;3.33;;;21.00;55.30;;;;;;5054562;28;20660;-70
2024/03/04 01:15:02;;;;;;;3.87;3.27;;;21.00;55.30;;;;;;5054655;28;20171;-71
2024/03/04 01:17:28;;;;;;;2.83;2.57;;;21.00;55.30;;;;;;5054458;28;20429;-71
2024/03/04 01:19:54;;;;;;;4.20;2.87;;;21.00;55.30;;;;;;5054719;28;20390;-70
2024/03/04 01:22:19;;;;;;;3.20;2.87;;;21.00;55.30;;;;;;5054371;28;20481;-71
2024/03/04 01:24:49;;;;;;;3.17;2.87;;;21.00;55.30;;;;;;5053173;28;20222;-70
2024/03/04 01:27:15;;;;;;;3.20;2.90;;;21.00;55.30;;;;;;5054733;28;20225;-70
2024/03/04 01:29:41;;;;;;;3.30;3.00;;;21.00;55.30;;;;;;5054932;28;20482;-70
2024/03/04 01:32:09;;;;;;;5.03;2.90;;;21.00;55.30;;;;;;5054798;28;20405;-71
2024/03/04 01:34:38;;;;;;;2.97;2.67;;;21.00;55.30;;;;;;5054613;28;20956;-70
2024/03/04 01:37:08;;;;;;;3.03;2.73;;;21.00;55.30;;;;;;5054726;28;20417;-71
2024/03/04 01:39:34;;;;;;;2.80;2.60;;;21.00;55.30;;;;;;5054248;28;21036;-71
2024/03/04 01:42:01;;;;;;;3.33;3.03;;;21.00;55.30;;;;;;5054270;28;20526;-71
2024/03/04 01:44:35;;;;;;;3.20;2.90;;;21.00;55.30;;;;;;5054214;28;20445;-70
2024/03/04 01:47:03;;;;;;;3.27;2.97;;;21.00;55.30;;;;;;5054754;28;20398;-71
2024/03/04 01:49:31;;;;;;;4.10;3.10;;;21.00;55.40;;;;;;5054524;28;20853;-70
2024/03/04 01:51:58;;;;;;;3.87;3.17;;;20.90;55.30;;;;;;5054418;28;20406;-71
2024/03/04 01:54:24;;;;;;;3.53;3.03;;;21.00;55.30;;;;;;5054299;28;20448;-69
2024/03/04 01:56:50;;;;;;;2.90;2.70;;;20.90;55.30;;;;;;5054311;28;20427;-70
2024/03/04 01:59:17;;;;;;;3.07;2.73;;;20.90;55.30;;;;;;5053533;28;20499;-71
2024/03/04 02:01:44;;;;;;;2.73;2.53;;;21.00;55.30;;;;;;5053598;28;20817;-72
2024/03/04 02:04:10;;;;;;;3.20;2.90;;;20.90;55.30;;;;;;5054010;28;20931;-71
2024/03/04 02:06:37;;;;;;;2.83;2.63;;;21.00;55.40;;;;;;5054291;28;20414;-70
2024/03/04 02:09:03;;;;;;;3.03;2.73;;;20.90;55.30;;;;;;5054022;28;20201;-70
2024/03/04 02:11:29;;;;;;;3.50;2.87;;;20.90;55.20;;;;;;5052504;28;20402;-70
2024/03/04 02:13:55;;;;;;;3.30;3.00;;;20.90;55.30;;;;;;5053908;28;20765;-71
2024/03/04 02:16:20;;;;;;;3.10;2.80;;;21.00;55.30;;;;;;5053351;28;20437;-71
2024/03/04 02:18:46;;;;;;;3.07;2.77;;;20.90;55.20;;;;;;5053732;28;20187;-71
2024/03/04 02:21:15;;;;;;;3.07;2.77;;;21.00;55.30;;;;;;5052796;28;20219;-71
2024/03/04 02:23:41;;;;;;;3.07;2.77;;;21.00;55.30;;;;;;5053744;28;20429;-71
2024/03/04 02:26:06;;;;;;;3.10;2.80;;;21.00;55.40;;;;;;5053758;28;20781;-71
2024/03/04 02:28:33;;;;;;;3.30;2.80;;;21.00;55.30;;;;;;5053716;28;20199;-71
2024/03/04 02:31:01;;;;;;;3.33;2.93;;;21.00;55.30;;;;;;5052935;28;20241;-70
2024/03/04 02:33:28;;;;;;;3.07;2.77;;;21.00;55.30;;;;;;5053261;28;20441;-71
2024/03/04 02:35:54;;;;;;;4.30;2.93;;;21.00;55.30;;;;;;5053614;28;20414;-70
2024/03/04 02:38:20;;;;;;;3.70;3.30;;;21.00;55.30;;;;;;5053259;28;20413;-71
2024/03/04 02:40:48;;;;;;;2.87;2.57;;;20.90;55.20;;;;;;5053247;28;20214;-71
2024/03/04 02:43:14;;;;;;;2.47;2.27;;;21.00;55.30;;;;;;5053261;28;20436;-69
2024/03/04 02:45:40;;;;;;;2.70;2.10;;;21.00;55.30;;;;;;5053162;28;20462;-71
2024/03/04 02:48:06;;;;;;;3.03;2.73;;;21.00;55.30;;;;;;5053231;28;20417;-69
2024/03/04 02:50:33;;;;;;;3.27;2.47;;;21.00;55.30;;;;;;5051485;28;20206;-70
2024/03/04 02:53:01;;;;;;;2.97;2.50;;;21.00;55.30;;;;;;5053984;28;20433;-70
2024/03/04 02:55:27;;;;;;;3.40;2.60;;;21.00;55.30;;;;;;5057292;28;20420;-71
2024/03/04 02:57:52;;;;;;;2.23;2.03;;;21.00;55.30;;;;;;5057254;28;20414;-70
2024/03/04 03:00:18;;;;;;;3.27;2.97;;;21.00;55.30;;;;;;5057221;28;20487;-70
2024/03/04 03:02:44;;;;;;;3.27;2.97;;;21.00;55.30;;;;;;5057857;28;20194;-70
2024/03/04 03:05:10;;;;;;;2.73;2.50;;;20.90;55.20;;;;;;5057719;28;20594;-70
2024/03/04 03:07:35;;;;;;;4.73;2.67;;;20.90;55.20;;;;;;5058100;28;20233;-70
2024/03/04 03:10:02;;;;;;;3.20;2.90;;;21.00;55.30;;;;;;5056843;28;20405;-70
2024/03/04 03:12:28;;;;;;;3.10;2.63;;;20.90;55.20;;;;;;5054932;28;20182;-71
2024/03/04 03:14:54;;;;;;;2.57;2.13;;;21.00;55.30;;;;;;5057021;28;20405;-70
2024/03/04 03:17:20;;;;;;;3.03;2.60;;;20.90;55.20;;;;;;5056377;28;20262;-71
2024/03/04 03:19:46;;;;;;;3.63;3.17;;;21.00;55.30;;;;;;5056490;28;20389;-71
2024/03/04 03:22:11;;;;;;;3.83;2.40;;;21.00;55.30;;;;;;5056805;28;20429;-71
2024/03/04 03:24:37;;;;;;;2.90;2.70;;;21.00;55.30;;;;;;5056441;28;20195;-70
2024/03/04 03:27:02;;;;;;;2.77;2.47;;;20.90;55.30;;;;;;5056428;28;20171;-71
2024/03/04 03:29:28;;;;;;;2.83;2.53;;;20.90;55.30;;;;;;5056479;28;20171;-70
2024/03/04 03:31:54;;;;;;;2.73;2.53;;;20.90;55.30;;;;;;5056485;28;20178;-70
2024/03/04 03:34:19;;;;;;;2.80;2.53;;;20.90;55.30;;;;;;5055204;28;20182;-70
2024/03/04 03:36:45;;;;;;;2.83;2.40;;;20.90;55.30;;;;;;5056410;28;20198;-70
2024/03/04 03:39:12;;;;;;;2.67;2.47;;;20.90;55.30;;;;;;5056613;28;20182;-70
2024/03/04 03:41:38;;;;;;;3.10;2.77;;;20.90;55.30;;;;;;5056118;28;20245;-70
2024/03/04 03:44:03;;;;;;;3.00;2.60;;;20.90;55.30;;;;;;5056332;28;20425;-70
2024/03/04 03:46:29;;;;;;;2.90;2.60;;;21.00;55.30;;;;;;5057154;28;20272;-71
2024/03/04 03:48:55;;;;;;;2.97;2.63;;;20.90;55.30;;;;;;5056761;28;20174;-70
2024/03/04 03:51:21;;;;;;;2.60;2.37;;;20.90;55.30;;;;;;5057125;28;20418;-70
2024/03/04 03:53:46;;;;;;;2.93;2.60;;;20.90;55.30;;;;;;5056628;28;20252;-70
2024/03/04 03:56:12;;;;;;;2.60;2.40;;;21.00;55.40;;;;;;5057508;28;20413;-70
2024/03/04 03:58:38;;;;;;;2.83;2.57;;;20.90;55.30;;;;;;5056983;28;20712;-71
2024/03/04 04:01:04;;;;;;;2.67;2.47;;;20.90;55.30;;;;;;5057280;28;20285;-72
2024/03/04 04:03:30;;;;;;;3.13;2.70;;;20.90;55.30;;;;;;5056903;28;20430;-70
2024/03/04 04:05:58;;;;;;;2.30;2.10;;;20.90;55.30;;;;;;5055183;28;20175;-69
2024/03/04 04:08:23;;;;;;;3.20;2.80;;;20.90;55.90;;;;;;5056623;28;20409;-69
2024/03/04 04:10:49;;;;;;;2.97;2.50;;;20.90;55.30;;;;;;5056828;28;20406;-71
2024/03/04 04:13:15;;;;;;;2.50;2.30;;;20.90;55.30;;;;;;5056319;28;20615;-70
2024/03/04 04:15:41;;;;;;;3.13;2.83;;;20.90;55.30;;;;;;5057241;28;20171;-70
2024/03/04 04:18:06;;;;;;;2.80;2.50;;;20.90;55.30;;;;;;5054924;28;20475;-70
2024/03/04 04:20:32;;;;;;;2.70;2.40;;;20.90;55.30;;;;;;5055981;28;20207;-70
2024/03/04 04:22:58;;;;;;;2.60;2.40;;;20.90;55.30;;;;;;5056854;28;20273;-71
2024/03/04 04:25:24;;;;;;;2.57;2.37;;;20.90;55.30;;;;;;5056089;28;20171;-70
2024/03/04 04:27:50;;;;;;;2.40;1.93;;;20.90;55.30;;;;;;5054605;28;20432;-71
2024/03/04 04:30:15;;;;;;;3.30;2.50;;;20.90;55.30;;;;;;5056538;28;20440;-70
2024/03/04 04:32:41;;;;;;;2.40;2.20;;;20.90;55.30;;;;;;5054901;28;20205;-69
2024/03/04 04:35:07;;;;;;;2.50;2.30;;;20.90;55.30;;;;;;5056439;28;20551;-71
2024/03/04 04:37:33;;;;;;;2.50;2.10;;;20.90;55.30;;;;;;5056411;28;20786;-70
2024/03/04 04:39:58;;;;;;;2.67;2.47;;;20.90;55.30;;;;;;5055900;28;20666;-71
2024/03/04 04:42:24;;;;;;;3.20;2.73;;;20.90;55.30;;;;;;5055533;28;20203;-70
2024/03/04 04:44:50;;;;;;;2.47;2.17;;;20.90;55.90;;;;;;5055888;28;20690;-68
2024/03/04 04:47:16;;;;;;;3.43;2.83;;;20.90;55.40;;;;;;5056121;28;20656;-71
2024/03/04 04:49:42;;;;;;;2.93;2.50;;;20.90;55.30;;;;;;5055696;28;20475;-70
2024/03/04 04:52:08;;;;;;;2.87;2.60;;;20.90;55.30;;;;;;5055970;28;20409;-68
2024/03/04 04:54:34;;;;;;;2.37;2.17;;;20.90;55.40;;;;;;5055633;28;20183;-72
2024/03/04 04:56:59;;;;;;;3.10;2.80;;;20.90;55.30;;;;;;5055774;28;20612;-70
2024/03/04 04:59:25;;;;;;;2.80;2.60;;;20.90;55.30;;;;;;5055872;28;20179;-70
2024/03/04 05:01:51;;;;;;;2.93;2.63;;;20.90;55.30;;;;;;5055851;28;20214;-70
2024/03/04 05:04:18;;;;;;;2.37;2.17;;;21.00;55.40;;;;;;5055796;28;20429;-71
2024/03/04 05:06:44;;;;;;;2.50;2.30;;;20.90;55.40;;;;;;5055734;28;20228;-71
2024/03/04 05:09:10;;;;;;;2.73;2.40;;;20.90;55.30;;;;;;5055558;28;20469;-71
2024/03/04 05:11:36;;;;;;;2.90;2.10;;;20.90;55.30;;;;;;5055445;28;20424;-70
2024/03/04 05:14:02;;;;;;;2.77;2.57;;;20.90;55.40;;;;;;5055771;28;20429;-71
2024/03/04 05:16:29;;;;;;;3.00;2.60;;;21.00;55.40;;;;;;5054873;28;20414;-71
2024/03/04 05:18:56;;;;;;;2.43;2.13;;;21.00;55.40;;;;;;5055624;28;20191;-70
2024/03/04 05:21:22;;;;;;;2.70;2.50;;;21.00;55.40;;;;;;5055377;28;20468;-70
2024/03/04 05:23:47;;;;;;;2.50;2.30;;;21.00;55.40;;;;;;5055057;28;20430;-70
2024/03/04 05:26:13;;;;;;;2.60;2.30;;;21.00;55.40;;;;;;5055969;28;20173;-72
2024/03/04 05:28:38;;;;;;;2.77;2.57;;;21.00;55.40;;;;;;5055502;28;20175;-70
2024/03/04 05:31:04;;;;;;;2.90;2.43;;;21.00;55.40;;;;;;5055396;28;20225;-71
2024/03/04 05:33:30;;;;;;;2.43;2.23;;;21.00;55.30;;;;;;5054775;28;20237;-70
2024/03/04 05:35:55;;;;;;;2.10;1.90;;;21.00;55.40;;;;;;5054950;28;20591;-70
2024/03/04 05:38:21;;;;;;;2.53;2.10;;;21.00;55.30;;;;;;5055082;28;20182;-70
2024/03/04 05:40:46;;;;;;;3.83;2.50;;;21.00;55.30;;;;;;5055222;28;20244;-71
2024/03/04 05:43:12;;;;;;;2.60;2.30;;;21.00;55.30;;;;;;5054827;28;20696;-70
2024/03/04 05:45:38;;;;;;;2.77;2.27;;;21.00;55.30;;;;;;5054421;28;20174;-70
2024/03/04 05:48:05;;;;;;;2.47;2.00;;;21.00;55.30;;;;;;5054839;28;20163;-71
2024/03/04 05:50:31;;;;;;;3.27;2.97;;;21.00;55.30;;;;;;5054519;28;20172;-71
2024/03/04 05:52:56;;;;;;;3.00;2.50;;;21.00;55.90;;;;;;5054559;28;20444;-70
2024/03/04 05:55:22;;;;;;;2.77;2.33;;;21.00;55.30;;;;;;5054513;28;20167;-71
2024/03/04 05:57:47;;;;;;;3.23;2.40;;;21.00;55.30;;;;;;5054651;28;20198;-69
2024/03/04 06:00:16;;;;;;;2.83;2.27;;;21.00;55.30;;;;;;5054975;28;20753;-71
2024/03/04 06:02:42;;;;;;;3.43;2.57;;;21.00;55.30;;;;;;5054616;28;20177;-70
2024/03/04 06:05:09;;;;;;;2.30;2.07;;;21.00;55.30;;;;;;5054157;28;20484;-69
2024/03/04 06:07:34;;;;;;;4.00;2.70;;;21.10;55.40;;;;;;5053669;28;20186;-70
2024/03/04 06:10:00;;;;;;;2.83;2.53;;;21.00;55.30;;;;;;5053933;28;20520;-69
2024/03/04 06:12:26;;;;;;;3.20;2.90;;;21.00;55.30;;;;;;5053805;28;20221;-69
2024/03/04 06:14:51;;;;;;;5.20;3.80;;;21.10;55.40;;;;;;5053591;28;20191;-70
2024/03/04 06:17:17;;;;;;;3.57;3.00;;;21.00;55.30;;;;;;5053317;28;20187;-69
2024/03/04 06:19:43;;;;;;;2.67;2.47;;;21.00;55.30;;;;;;5053728;28;20152;-71
2024/03/04 06:22:08;;;;;;;2.73;2.50;;;21.00;55.30;;;;;;5053736;28;20213;-68
2024/03/04 06:24:34;;;;;;;3.50;2.70;;;21.10;55.40;;;;;;5053781;28;20702;-70
2024/03/04 06:27:02;;;;;;;3.47;3.00;;;21.10;55.40;;;;;;5052283;28;20640;-69
2024/03/04 06:29:33;;;;;;;3.40;2.80;;;21.10;55.90;;;;;;5053747;28;20167;-70
2024/03/04 06:32:02;;;;;;;3.07;2.77;;;21.10;55.40;;;;;;5054581;28;20500;-68
2024/03/04 06:34:31;;;;;;;2.70;2.50;;;21.10;55.40;;;;;;5053061;28;20477;-71
2024/03/04 06:36:57;;;;;;;3.63;2.67;;;21.10;55.30;;;;;;5053738;28;20871;-70
2024/03/04 06:39:24;;;;;;;2.93;2.53;;;21.10;55.30;;;;;;5054252;28;20413;-69
2024/03/04 06:41:50;;;;;;;3.60;3.03;;;21.10;55.30;;;;;;5053805;28;20459;-69
2024/03/04 06:44:16;;;;;;;4.00;2.73;;;21.20;55.40;;;;;;5053977;28;20437;-70
2024/03/04 06:46:42;;;;;;;3.93;3.00;;;21.20;55.40;;;;;;5054225;28;20420;-70
2024/03/04 06:49:08;;;;;;;2.87;2.53;;;21.20;55.40;;;;;;5053702;28;20175;-69
2024/03/04 06:51:37;;;;;;;4.00;3.17;;;21.20;55.40;;;;;;5053581;28;20456;-70
2024/03/04 06:54:06;;;;;;;3.63;2.83;;;21.20;55.40;;;;;;5053423;28;20195;-68
2024/03/04 06:56:32;;;;;;;3.73;3.10;;;21.20;55.30;;;;;;5053787;28;20409;-71
2024/03/04 06:59:02;;;;;;;3.60;3.00;;;21.20;55.30;;;;;;5053817;28;20935;-70
2024/03/04 07:01:28;;;;;;;3.27;2.97;;;21.20;55.30;;;;;;5054067;28;20457;-70
2024/03/04 07:03:57;;;;;;;4.93;3.20;;;21.30;55.40;;;;;;5053505;28;20952;-68
2024/03/04 07:06:22;;;;;;;3.23;2.93;;;21.30;55.30;;;;;;5053678;28;20413;-72
2024/03/04 07:08:48;;;;;;;3.87;2.80;;;21.30;55.30;;;;;;5053219;28;20451;-67
2024/03/04 07:11:17;;;;;;;3.20;2.80;;;21.30;55.30;;;;;;5053564;28;20176;-71
2024/03/04 07:13:43;;;;;;;4.13;3.00;;;21.30;55.90;;;;;;5052907;28;20449;-71
2024/03/04 07:16:12;;;;;;;3.27;2.97;;;21.30;55.80;;;;;;5053232;28;20425;-68
2024/03/04 07:18:38;;;;;;;3.17;2.87;;;21.30;55.30;;;;;;5053395;28;20194;-68
2024/03/04 07:21:05;;;;;;;4.50;2.97;;;21.30;55.30;;;;;;5053498;28;21057;-71
2024/03/04 07:23:31;;;;;;;3.40;3.00;;;21.30;55.30;;;;;;5053533;28;20218;-68
2024/03/04 07:25:56;;;;;;;4.97;3.00;;;21.30;55.30;;;;;;5053713;28;20414;-68
2024/03/04 07:28:22;;;;;;;3.20;2.90;;;21.40;55.30;;;;;;5053319;28;20593;-72
2024/03/04 07:30:51;;;;;;;3.10;2.80;;;21.40;55.30;;;;;;5053796;28;20202;-70
2024/03/04 07:33:16;;;;;;;2.83;2.50;;;21.40;55.30;;;;;;5053987;28;20195;-69
2024/03/04 07:35:42;;;;;;;3.53;3.20;;;21.40;55.30;;;;;;5053456;28;20470;-69
2024/03/04 07:38:09;;;;;;;3.33;3.00;;;21.40;55.90;;;;;;5053427;28;20175;-69
2024/03/04 07:40:35;;;;;;;3.37;3.03;;;21.40;55.30;;;;;;5056526;28;20209;-71
2024/03/04 07:43:03;;;;;;;3.67;2.87;;;21.40;55.30;;;;;;5056896;28;20429;-68
2024/03/04 07:45:29;;;;;;;3.40;2.80;;;21.40;55.30;;;;;;5057545;28;20174;-70
2024/03/04 07:47:56;;;;;;;5.30;3.10;;;21.40;55.30;;;;;;5057331;28;20832;-71
2024/03/04 07:50:25;;;;;;;4.20;2.70;;;21.40;55.50;;;;;;5057689;28;20916;-70
2024/03/04 07:52:51;;;;;;;3.00;2.63;;;21.40;55.30;;;;;;5055707;28;20437;-68
2024/03/04 07:55:16;;;;;;;3.30;2.53;;;21.40;55.30;;;;;;5055627;28;20413;-68
2024/03/04 07:57:45;;;;;;;3.40;2.63;;;21.40;55.20;;;;;;5055795;28;20226;-69
2024/03/04 08:00:12;;;;;;;3.20;2.90;;;21.40;55.20;;;;;;5055659;28;20167;-69
2024/03/04 08:02:44;;;;;;;3.13;2.83;;;21.40;55.20;;;;;;5055818;28;20402;-69
2024/03/04 08:05:10;;;;;;;2.30;2.10;;;21.40;55.20;;;;;;5055152;28;20405;-70
2024/03/04 08:07:37;;;;;;;2.70;2.50;;;21.40;55.20;;;;;;5055474;28;20596;-69
2024/03/04 08:10:04;;;;;;;5.87;3.07;;;21.40;55.20;;;;;;5055927;28;20414;-69
2024/03/04 08:12:29;;;;;;;2.90;2.60;;;21.40;55.20;;;;;;5055955;28;20410;-67
2024/03/04 08:14:55;;;;;;;2.90;2.60;;;21.40;55.20;;;;;;5055744;28;20417;-72
2024/03/04 08:17:20;;;;;;;2.73;2.50;;;21.40;55.80;;;;;;5055696;28;20198;-69
2024/03/04 08:19:46;;;;;;;2.97;2.67;;;21.50;55.30;;;;;;5056121;28;20163;-70
2024/03/04 08:22:12;;;;;;;3.13;2.93;;;21.50;55.30;;;;;;5055543;28;20206;-68
2024/03/04 08:24:41;;;;;;;2.83;2.63;;;21.50;55.30;;;;;;5055519;28;20237;-70
2024/03/04 08:27:07;;;;;;;3.27;2.90;;;21.50;55.30;;;;;;5055711;28;20228;-69
2024/03/04 08:29:34;;;;;;;3.27;2.97;;;21.50;55.30;;;;;;5055953;28;20417;-68
2024/03/04 08:32:00;;;;;;;2.63;2.43;;;21.50;55.30;;;;;;5054747;28;20182;-69
2024/03/04 08:34:27;;;;;;;3.70;2.77;;;21.50;55.30;;;;;;5055693;28;20441;-69
2024/03/04 08:36:52;;;;;;;2.80;2.50;;;21.50;55.30;;;;;;5055576;28;20421;-69
2024/03/04 08:39:18;;;;;;;4.77;2.93;;;21.50;55.30;;;;;;5055533;28;20500;-69
2024/03/04 08:41:48;;;;;;;3.00;2.23;;;21.50;55.30;;;;;;5053852;28;20289;-69
2024/03/04 08:44:14;;;;;;;2.53;2.33;;;21.50;55.30;;;;;;5055043;28;20611;-69
2024/03/04 08:46:40;;;;;;;2.47;2.27;;;21.50;55.40;;;;;;5055346;28;20409;-67
2024/03/04 08:49:05;;;;;;;3.00;2.67;;;21.50;55.30;;;;;;5055642;28;20409;-69
2024/03/04 08:51:32;;;;;;;2.47;2.27;;;21.50;55.30;;;;;;5055505;28;20916;-69
2024/03/04 08:53:57;;;;;;;2.97;2.40;;;21.50;55.30;;;;;;5056920;28;20225;-68
2024/03/04 08:56:24;;;;;;;3.10;2.80;;;21.50;55.30;;;;;;5057403;28;20417;-70
2024/03/04 08:58:50;;;;;;;2.53;2.03;;;21.50;55.30;;;;;;5057057;28;20175;-69
2024/03/04 09:01:17;;;;;;;3.30;2.90;;;21.50;55.30;;;;;;5056276;28;20453;-69
2024/03/04 09:03:43;;;;;;;3.13;2.73;;;21.50;55.30;;;;;;5055727;28;20274;-68
2024/03/04 09:06:18;;;;;;;3.50;3.10;;;21.50;55.30;;;;;;5055741;28;20432;-69
2024/03/04 09:08:43;;;;;;;4.17;2.70;;;21.50;55.30;;;;;;5055608;28;20169;-69
2024/03/04 09:11:09;;;;;;;3.03;2.73;;;21.50;55.30;;;;;;5055604;28;20779;-69
2024/03/04 09:13:35;;;;;;;3.00;2.70;;;21.50;55.30;;;;;;5055488;28;20206;-70
2024/03/04 09:16:02;;;;;;;2.90;2.40;;;21.50;55.30;;;;;;5055388;28;20445;-72
2024/03/04 09:18:28;;;;;;;3.33;2.67;;;21.50;55.30;;;;;;5055762;28;20437;-68
2024/03/04 09:20:54;;;;;;;2.67;2.47;;;21.50;55.30;;;;;;5054767;28;20456;-70
2024/03/04 09:23:19;;;;;;;3.87;2.20;;;21.50;55.30;;;;;;5055249;28;20191;-70
2024/03/04 09:25:45;;;;;;;2.40;2.20;;;21.50;55.30;;;;;;5055479;28;20713;-69
2024/03/04 09:28:10;;;;;;;2.63;2.43;;;21.50;55.30;;;;;;5055095;28;20267;-70
2024/03/04 09:30:36;;;;;;;3.20;2.80;;;21.50;55.30;;;;;;5055007;28;20589;-70
2024/03/04 09:33:02;;;;;;;2.40;2.20;;;21.50;55.30;;;;;;5055191;28;20199;-68
2024/03/04 09:35:28;;;;;;;2.50;2.13;;;21.50;55.30;;;;;;5054980;28;20182;-69
2024/03/04 09:37:54;;;;;;;2.47;2.00;;;21.50;55.30;;;;;;5054835;28;20920;-68
2024/03/04 09:40:20;;;;;;;2.73;2.40;;;21.50;55.30;;;;;;5054031;28;20449;-70
2024/03/04 09:42:49;;;;;;;4.07;2.20;;;21.50;55.40;;;;;;5054595;28;20185;-68
2024/03/04 09:45:21;;;;;;;2.70;2.47;;;21.50;55.90;;;;;;5053817;28;20182;-69
2024/03/04 09:47:52;;;;;;;2.83;2.60;;;21.50;55.40;;;;;;5054091;28;20399;-69
2024/03/04 09:50:20;;;;;;;2.50;2.30;;;21.50;55.40;;;;;;5053112;28;20984;-69
2024/03/04 09:52:47;;;;;;;3.00;2.80;;;21.50;55.40;;;;;;5053568;28;20795;-68
2024/03/04 09:55:13;;;;;;;2.53;2.33;;;21.50;55.40;;;;;;5053608;28;20405;-70
2024/03/04 09:57:39;;;;;;;3.63;2.70;;;21.50;55.40;;;;;;5053771;28;20462;-69
2024/03/04 10:00:07;;;;;;;2.70;2.30;;;21.50;55.40;;;;;;5053009;28;20172;-69
2024/03/04 10:02:33;;;;;;;2.77;2.53;;;21.50;55.40;;;;;;5052171;28;20174;-69
2024/03/04 10:04:58;;;;;;;2.70;2.50;;;21.50;55.40;;;;;;5052885;28;20405;-68
2024/03/04 10:07:24;;;;;;;3.50;2.20;;;21.50;55.40;;;;;;5052664;28;20903;-68
2024/03/04 10:09:54;;;;;;;3.10;2.13;;;21.50;55.40;;;;;;5053031;28;20183;-69
2024/03/04 10:12:20;;;;;;;2.90;2.60;;;21.50;55.40;;;;;;5053425;28;20183;-69
2024/03/04 10:15:09;;;;;;;2.83;2.20;;;21.50;55.40;;;;;;5052905;28;20471;-69
2024/03/04 10:17:35;;;;;;;3.53;2.53;;;21.50;55.40;;;;;;5054085;28;20198;-71
2024/03/04 10:20:09;;;;;;;2.40;2.17;;;21.50;55.40;;;;;;5053286;28;20452;-69
2024/03/04 10:22:35;;;;;;;3.17;2.30;;;21.50;55.40;;;;;;5052855;28;20406;-72
2024/03/04 10:25:04;;;;;;;3.20;2.70;;;21.50;55.40;;;;;;5052583;28;20413;-71
2024/03/04 10:27:30;;;;;;;2.23;2.03;;;21.50;55.40;;;;;;5053926;28;20409;-68
2024/03/04 10:30:10;;;;;;;2.73;2.20;;;21.50;55.50;;;;;;5053026;28;20502;-70
2024/03/04 10:32:47;;;;;;;3.90;2.77;;;21.50;55.40;;;;;;5053144;28;20429;-69
2024/03/04 10:35:13;;;;;;;3.57;3.10;;;21.50;55.50;;;;;;5055084;28;20407;-69
2024/03/04 10:37:39;;;;;;;3.13;2.83;;;21.50;55.40;;;;;;5054885;28;20414;-69
2024/03/04 10:40:11;;;;;;;3.10;2.77;;;21.50;55.40;;;;;;5052222;28;20925;-70
2024/03/04 10:42:41;;;;;;;3.87;3.07;;;21.50;55.40;;;;;;5052175;28;20378;-71
2024/03/04 10:45:08;;;;;;;2.73;2.47;;;21.50;55.50;;;;;;5052177;28;20404;-69
2024/03/04 10:47:36;;;;;;;3.33;2.90;;;21.50;55.50;;;;;;5051845;28;20459;-68
2024/03/04 10:50:04;;;;;;;5.47;3.70;;;21.50;55.50;;;;;;5055681;28;20762;-71
2024/03/04 10:52:30;;;;;;;3.33;2.43;;;21.50;55.50;;;;;;5056031;28;20433;-70
2024/03/04 10:54:55;;;;;;;4.23;2.70;;;21.50;55.50;;;;;;5056171;28;20407;-71
2024/03/04 10:57:29;;;;;;;6.40;3.40;;;21.50;55.50;;;;;;5051771;28;20417;-70
2024/03/04 11:02:59;;;;;;;5.20;3.30;;;21.60;55.50;;;;;;5059066;28;20445;-69
2024/03/04 11:05:26;;;;;;;4.07;3.67;;;21.60;55.60;;;;;;5058519;28;20409;-70
2024/03/04 11:08:00;;;;;;;3.80;3.30;;;21.60;55.60;;;;;;5053798;28;20808;-71
2024/03/04 11:10:41;;;;;;;3.30;2.47;;;21.60;55.60;;;;;;5052736;28;20884;-69
2024/03/04 11:13:13;;;;;;;4.00;3.10;;;21.60;55.50;;;;;;5052843;28;20429;-70
2024/03/04 11:16:17;;;;;;;3.70;2.90;;;21.60;55.50;;;;;;5058022;28;20409;-69
2024/03/04 11:19:01;;;;;;;5.43;3.27;;;21.60;55.60;;;;;;5059811;28;20955;-69
2024/03/04 11:21:28;;;;;;;4.53;2.93;;;21.60;55.60;;;;;;5057609;28;20460;-69
2024/03/04 11:23:54;;;;;;;6.20;2.90;;;21.60;55.70;;;;;;5058407;28;20948;-70
2024/03/04 11:26:22;;;;;;;4.43;2.93;;;21.60;55.70;;;;;;5057432;28;20405;-70
2024/03/04 11:28:50;;;;;;;5.20;3.77;;;21.60;55.70;;;;;;5057029;28;20405;-70
2024/03/04 11:31:28;;;;;;;5.50;3.53;;;21.60;55.70;;;;;;5056997;28;20416;-70
2024/03/04 11:34:01;;;;;;;3.37;2.90;;;21.60;55.80;;;;;;5057209;28;20815;-70
2024/03/04 11:36:27;;;;;;;3.23;2.93;;;21.70;55.90;;;;;;5056823;28;20413;-69
2024/03/04 11:38:55;;;;;;;5.10;2.87;;;21.60;55.80;;;;;;5056654;28;20409;-70
2024/03/04 11:41:37;;;;;;;5.00;3.00;;;21.60;55.80;;;;;;5057962;28;20502;-69
2024/03/04 11:44:03;;;;;;;3.80;3.03;;;21.60;55.80;;;;;;5057875;28;20474;-69
2024/03/04 11:46:33;;;;;;;4.77;2.77;;;21.60;55.80;;;;;;5056954;28;20409;-70
2024/03/04 11:49:26;;;;;;;4.97;2.97;;;21.60;55.80;;;;;;5056254;28;20409;-70
2024/03/04 11:52:06;;;;;;;4.40;3.20;;;21.60;55.80;;;;;;5056404;28;20401;-68
2024/03/04 11:54:35;;;;;;;4.50;2.67;;;21.60;55.80;;;;;;5056329;28;20429;-70
2024/03/04 11:57:03;;;;;;;4.70;3.10;;;21.60;55.80;;;;;;5057084;28;20441;-70
2024/03/04 11:59:29;;;;;;;3.30;2.70;;;21.60;55.80;;;;;;5057177;28;20820;-69
2024/03/04 12:01:55;;;;;;;2.87;2.57;;;21.60;56.30;;;;;;5056946;28;20502;-71
2024/03/04 12:04:28;;;;;;;4.93;2.97;;;21.60;55.80;;;;;;5056982;28;20851;-69
2024/03/04 12:06:55;;;;;;;5.40;2.40;;;21.60;56.30;;;;;;5056982;28;20446;-70
2024/03/04 12:09:23;;;;;;;3.73;2.67;;;21.60;55.80;;;;;;5057737;28;20428;-70
2024/03/04 12:11:48;;;;;;;5.17;3.10;;;21.60;55.80;;;;;;5057258;28;20405;-68
2024/03/04 12:14:14;;;;;;;3.97;3.30;;;21.60;55.80;;;;;;5056669;28;20425;-70
2024/03/04 12:16:40;;;;;;;4.47;2.63;;;21.60;55.80;;;;;;5056501;28;20171;-69
2024/03/04 12:19:06;;;;;;;3.60;3.10;;;21.60;55.80;;;;;;5057040;28;20665;-70
2024/03/04 12:21:32;;;;;;;5.60;2.87;;;21.60;55.80;;;;;;5056669;28;20460;-71
2024/03/04 12:23:58;;;;;;;6.30;3.43;;;21.60;55.80;;;;;;5057266;28;20195;-69
2024/03/04 12:26:24;;;;;;;6.00;3.20;;;21.60;55.80;;;;;;5055808;28;20432;-69
2024/03/04 12:28:59;;;;;;;8.07;4.23;;;21.60;55.80;;;;;;5056780;28;20593;-71
2024/03/04 12:31:25;;;;;;;5.80;3.77;;;21.60;55.80;;;;;;5056547;28;20178;-71
2024/03/04 12:33:54;;;;;;;5.93;4.00;;;21.60;55.80;;;;;;5056007;28;20437;-70
2024/03/04 12:36:22;;;;;;;7.00;3.70;;;21.60;55.80;;;;;;5055865;28;20502;-71
2024/03/04 12:38:51;;;;;;;7.40;3.63;;;21.60;55.80;;;;;;5055950;28;20440;-70
2024/03/04 12:41:20;;;;;;;9.77;5.13;;;21.60;55.80;;;;;;5056303;28;20856;-71
2024/03/04 12:43:48;;;;;;;8.30;5.13;;;21.60;55.80;;;;;;5056775;28;20429;-69
2024/03/04 12:46:15;;;;;;;10.87;5.53;;;21.60;55.80;;;;;;5055114;28;20805;-71
2024/03/04 12:48:40;;;;;;;10.40;5.80;;;21.60;55.80;;;;;;5056997;28;20467;-71